Time;durP1;ratioP1;P1;durP2;ratioP2;P2;SDS_P1;SDS_P2;PMS_P1;PMS_P2;Temp;Humidity;BMP_temperature;BMP_pressure;BME280_temperature;BME280_humidity;BME280_pressure;Samples;Min_cycle;Max_cycle;Signal;HPM_P1;HPM_P2
2023/06/02 00:00:54;;;;;;;12.27;3.20;;;12.00;99.90;;;;;;5061603;28;20120;-74
2023/06/02 00:03:20;;;;;;;12.82;3.80;;;12.00;99.90;;;;;;5058981;28;20060;-74
2023/06/02 00:05:46;;;;;;;13.75;3.55;;;12.00;99.90;;;;;;5033580;28;20033;-74
2023/06/02 00:08:12;;;;;;;13.25;3.20;;;12.00;99.90;;;;;;5039717;28;20018;-73
2023/06/02 00:10:38;;;;;;;15.68;3.35;;;12.00;99.90;;;;;;5030040;28;20029;-75
2023/06/02 00:13:06;;;;;;;9.23;2.88;;;12.00;99.90;;;;;;5058754;28;20031;-75
2023/06/02 00:15:33;;;;;;;12.27;3.13;;;12.00;99.90;;;;;;5079945;28;20444;-74
2023/06/02 00:17:58;;;;;;;12.93;3.70;;;12.00;99.90;;;;;;5077563;28;20028;-77
2023/06/02 00:20:26;;;;;;;9.00;2.75;;;11.90;99.90;;;;;;5057908;28;20041;-75
2023/06/02 00:22:52;;;;;;;11.82;2.80;;;11.90;99.90;;;;;;5030716;28;20032;-75
2023/06/02 00:25:18;;;;;;;20.83;3.45;;;11.90;99.90;;;;;;5037583;28;20465;-73
2023/06/02 00:27:44;;;;;;;14.52;3.08;;;11.90;99.90;;;;;;5051199;28;20032;-74
2023/06/02 00:30:10;;;;;;;8.45;3.13;;;11.90;99.90;;;;;;5048666;28;20456;-74
2023/06/02 00:32:36;;;;;;;13.93;3.17;;;11.90;99.90;;;;;;5040955;28;20040;-74
2023/06/02 00:35:01;;;;;;;19.17;3.53;;;11.90;99.90;;;;;;5017431;28;20115;-75
2023/06/02 00:37:27;;;;;;;15.20;3.38;;;11.90;99.90;;;;;;5040378;28;20032;-74
2023/06/02 00:39:52;;;;;;;10.07;3.00;;;11.80;99.90;;;;;;5054003;28;20034;-78
2023/06/02 00:42:19;;;;;;;10.73;2.60;;;11.80;99.90;;;;;;5029829;28;20073;-74
2023/06/02 00:44:44;;;;;;;10.85;3.40;;;11.80;99.90;;;;;;5050790;28;20060;-77
2023/06/02 00:47:10;;;;;;;11.57;3.13;;;11.80;99.90;;;;;;5054819;28;20062;-75
2023/06/02 00:49:36;;;;;;;16.48;3.00;;;11.80;99.90;;;;;;5035891;28;20478;-76
2023/06/02 00:52:02;;;;;;;9.95;2.85;;;11.80;99.90;;;;;;5054568;28;20037;-74
2023/06/02 00:54:28;;;;;;;13.27;2.75;;;11.80;99.90;;;;;;5055274;28;20027;-75
2023/06/02 00:56:54;;;;;;;12.32;2.70;;;11.80;99.90;;;;;;5054913;28;20021;-76
2023/06/02 00:59:22;;;;;;;10.38;3.17;;;11.80;99.90;;;;;;5054906;28;20045;-76
2023/06/02 01:01:48;;;;;;;13.15;3.28;;;11.90;99.90;;;;;;5053813;28;20036;-74
2023/06/02 01:04:15;;;;;;;12.48;3.10;;;11.90;99.90;;;;;;5034922;28;21181;-76
2023/06/02 01:06:41;;;;;;;11.07;2.38;;;11.80;99.90;;;;;;5054627;28;20056;-74
2023/06/02 01:09:10;;;;;;;10.70;2.60;;;11.90;99.90;;;;;;5054762;28;20070;-78
2023/06/02 01:11:35;;;;;;;11.55;2.70;;;11.90;99.90;;;;;;5053574;28;20059;-77
2023/06/02 01:14:01;;;;;;;12.85;4.10;;;11.90;99.90;;;;;;5034637;28;20036;-74
2023/06/02 01:16:27;;;;;;;8.85;2.70;;;11.90;99.90;;;;;;5053592;28;20083;-74
2023/06/02 01:18:53;;;;;;;10.07;2.70;;;11.90;99.90;;;;;;5017171;28;20393;-75
2023/06/02 01:21:23;;;;;;;8.48;2.40;;;11.90;99.90;;;;;;5034602;28;20434;-74
2023/06/02 01:23:53;;;;;;;10.95;2.38;;;11.90;99.90;;;;;;5040872;28;20032;-75
2023/06/02 01:26:21;;;;;;;11.52;2.65;;;11.90;99.90;;;;;;5074549;28;20055;-76
2023/06/02 01:28:47;;;;;;;12.85;2.55;;;11.90;99.90;;;;;;5061317;28;20032;-77
2023/06/02 01:31:36;;;;;;;11.75;2.97;;;11.90;99.90;;;;;;5055803;28;20432;-76
2023/06/02 01:34:16;;;;;;;17.73;3.20;;;11.90;99.90;;;;;;5074397;28;20515;-75
2023/06/02 01:36:44;;;;;;;13.57;2.95;;;11.90;99.90;;;;;;5071922;28;20074;-75
2023/06/02 01:39:11;;;;;;;13.25;3.00;;;11.90;99.90;;;;;;5073344;28;20036;-76
2023/06/02 01:41:41;;;;;;;13.13;3.20;;;11.90;99.90;;;;;;5053142;28;20033;-75
2023/06/02 01:44:07;;;;;;;14.63;2.58;;;11.90;99.90;;;;;;5061586;28;20025;-75
2023/06/02 01:46:33;;;;;;;11.73;2.63;;;11.90;99.90;;;;;;5073524;28;20098;-75
2023/06/02 01:48:58;;;;;;;16.65;2.88;;;11.90;99.90;;;;;;5073886;28;20106;-78
2023/06/02 01:51:24;;;;;;;12.70;2.72;;;11.80;99.90;;;;;;5073099;28;20021;-75
2023/06/02 01:53:50;;;;;;;13.75;2.67;;;11.90;99.90;;;;;;5073816;28;20047;-75
2023/06/02 01:56:16;;;;;;;16.20;3.17;;;11.90;99.90;;;;;;5073805;28;20452;-74
2023/06/02 01:58:42;;;;;;;12.18;2.42;;;11.80;99.90;;;;;;5073664;28;20037;-75
2023/06/02 02:01:07;;;;;;;16.25;3.45;;;11.80;99.90;;;;;;5072871;28;20033;-74
2023/06/02 02:03:33;;;;;;;15.85;2.80;;;11.80;99.90;;;;;;5072738;28;20025;-76
2023/06/02 02:05:59;;;;;;;14.25;3.22;;;11.80;99.90;;;;;;5073237;28;20527;-77
2023/06/02 02:08:25;;;;;;;10.63;2.63;;;11.80;99.90;;;;;;5071518;28;20028;-75
2023/06/02 02:10:51;;;;;;;18.17;2.72;;;11.80;99.90;;;;;;5073528;28;20036;-74
2023/06/02 02:13:16;;;;;;;9.85;2.97;;;11.80;99.90;;;;;;5073660;28;20024;-75
2023/06/02 02:15:42;;;;;;;10.27;2.65;;;11.80;99.90;;;;;;5073233;28;20551;-75
2023/06/02 02:18:07;;;;;;;9.65;2.65;;;11.80;99.90;;;;;;5072919;28;20028;-78
2023/06/02 02:20:42;;;;;;;15.43;3.25;;;11.80;99.90;;;;;;5071790;28;20055;-75
2023/06/02 02:23:07;;;;;;;12.88;2.72;;;11.80;99.90;;;;;;5073728;28;20028;-74
2023/06/02 02:25:33;;;;;;;16.38;3.50;;;11.80;99.90;;;;;;5078603;28;20028;-75
2023/06/02 02:27:58;;;;;;;10.55;2.22;;;11.80;99.90;;;;;;5061304;28;20028;-74
2023/06/02 02:30:24;;;;;;;12.63;2.63;;;11.80;99.90;;;;;;5055394;28;20060;-75
2023/06/02 02:32:51;;;;;;;10.98;2.33;;;11.80;99.90;;;;;;5041742;28;20151;-77
2023/06/02 02:35:17;;;;;;;10.05;2.30;;;11.80;99.90;;;;;;5041216;28;20017;-77
2023/06/02 02:37:44;;;;;;;14.63;2.83;;;11.80;99.90;;;;;;5040971;28;20085;-76
2023/06/02 02:40:09;;;;;;;12.27;2.63;;;11.80;99.90;;;;;;5040618;28;20033;-76
2023/06/02 02:42:35;;;;;;;10.02;2.42;;;11.80;99.90;;;;;;5051951;28;20033;-75
2023/06/02 02:45:04;;;;;;;15.02;2.42;;;11.80;99.90;;;;;;5052197;28;20024;-77
2023/06/02 02:47:30;;;;;;;8.52;2.30;;;11.80;99.90;;;;;;5052720;28;20083;-76
2023/06/02 02:49:55;;;;;;;13.93;2.50;;;11.80;99.90;;;;;;5051899;28;20041;-77
2023/06/02 02:52:21;;;;;;;14.27;2.80;;;11.70;99.90;;;;;;5049251;28;20247;-73
2023/06/02 02:54:47;;;;;;;8.45;2.22;;;11.70;99.90;;;;;;5027889;28;20376;-77
2023/06/02 02:57:13;;;;;;;12.20;2.65;;;11.70;99.90;;;;;;5049089;28;20029;-76
2023/06/02 02:59:38;;;;;;;19.15;3.38;;;11.70;99.90;;;;;;5051694;28;20041;-74
2023/06/02 03:02:05;;;;;;;13.23;2.30;;;11.70;99.90;;;;;;5051880;28;20025;-77
2023/06/02 03:04:32;;;;;;;12.32;2.72;;;11.70;99.90;;;;;;5052330;28;20125;-77
2023/06/02 03:06:58;;;;;;;13.50;2.80;;;11.70;99.90;;;;;;5046552;28;20369;-76
2023/06/02 03:09:23;;;;;;;15.43;2.80;;;11.70;99.90;;;;;;5052710;28;20112;-78
2023/06/02 03:11:49;;;;;;;11.07;3.00;;;11.70;99.90;;;;;;5045429;28;20044;-77
2023/06/02 03:14:15;;;;;;;9.00;2.47;;;11.70;99.90;;;;;;5041066;28;20094;-76
2023/06/02 03:16:41;;;;;;;11.43;2.60;;;11.70;99.90;;;;;;5036879;28;20078;-75
2023/06/02 03:19:17;;;;;;;11.15;2.58;;;11.80;99.90;;;;;;5039465;28;20032;-77
2023/06/02 03:21:43;;;;;;;17.73;2.95;;;11.80;99.90;;;;;;5037417;28;20029;-75
2023/06/02 03:24:14;;;;;;;14.07;2.90;;;11.80;99.90;;;;;;5043151;28;20033;-75
2023/06/02 03:26:40;;;;;;;8.90;2.63;;;11.70;99.90;;;;;;5044719;28;20017;-75
2023/06/02 03:29:07;;;;;;;14.25;2.67;;;11.80;99.90;;;;;;5043860;28;20053;-75
2023/06/02 03:31:33;;;;;;;11.50;2.70;;;11.70;99.90;;;;;;5041428;28;20099;-75
2023/06/02 03:33:58;;;;;;;9.40;2.53;;;11.70;99.90;;;;;;5041013;28;20053;-75
2023/06/02 03:36:25;;;;;;;9.65;2.58;;;11.70;99.90;;;;;;5052064;28;20048;-75
2023/06/02 03:38:51;;;;;;;10.43;2.65;;;11.70;99.90;;;;;;5044185;28;20037;-74
2023/06/02 03:41:16;;;;;;;15.70;2.88;;;11.70;99.90;;;;;;5040159;28;20025;-75
2023/06/02 03:43:42;;;;;;;15.52;2.88;;;11.70;99.90;;;;;;5043617;28;20369;-75
2023/06/02 03:46:07;;;;;;;11.85;2.70;;;11.70;99.90;;;;;;5044594;28;20102;-74
2023/06/02 03:48:33;;;;;;;11.65;2.67;;;11.70;99.90;;;;;;5044509;28;20032;-75
2023/06/02 03:50:59;;;;;;;12.32;2.63;;;11.70;99.90;;;;;;5045100;28;20557;-74
2023/06/02 03:53:24;;;;;;;14.02;2.90;;;11.70;99.90;;;;;;5041113;28;20048;-76
2023/06/02 03:55:50;;;;;;;12.93;3.00;;;11.70;99.90;;;;;;5041216;28;20104;-74
2023/06/02 03:58:15;;;;;;;13.43;2.55;;;11.70;99.90;;;;;;5043717;28;20111;-78
2023/06/02 04:00:41;;;;;;;11.68;2.80;;;11.80;99.90;;;;;;5056674;28;20072;-78
2023/06/02 04:03:09;;;;;;;14.32;3.28;;;11.80;99.90;;;;;;5042823;28;20381;-77
2023/06/02 04:05:34;;;;;;;10.00;2.55;;;11.80;99.90;;;;;;5049839;28;20021;-77
2023/06/02 04:08:00;;;;;;;11.18;2.60;;;11.80;99.90;;;;;;5049986;28;20029;-78
2023/06/02 04:10:28;;;;;;;14.63;2.70;;;11.80;99.90;;;;;;5035693;28;20428;-76
2023/06/02 04:12:53;;;;;;;9.40;2.78;;;11.80;99.90;;;;;;5039515;28;20469;-76
2023/06/02 04:15:19;;;;;;;11.23;2.58;;;11.80;99.90;;;;;;5042520;28;20086;-76
2023/06/02 04:17:44;;;;;;;10.80;2.45;;;11.80;99.90;;;;;;5042937;28;20103;-77
2023/06/02 04:20:12;;;;;;;12.98;2.63;;;11.90;99.90;;;;;;5044395;28;20041;-76
2023/06/02 04:22:37;;;;;;;9.20;2.67;;;11.80;99.90;;;;;;5046491;28;20021;-75
2023/06/02 04:25:04;;;;;;;11.38;2.70;;;11.90;99.90;;;;;;5024872;28;20021;-77
2023/06/02 04:27:29;;;;;;;13.07;2.60;;;11.80;99.90;;;;;;5048875;28;20028;-75
2023/06/02 04:29:55;;;;;;;6.45;1.88;;;11.80;99.90;;;;;;5043975;28;20121;-75
2023/06/02 04:32:20;;;;;;;14.00;2.83;;;11.80;99.90;;;;;;5032831;28;20030;-75
2023/06/02 04:34:46;;;;;;;7.88;2.20;;;11.80;99.90;;;;;;5050118;28;20074;-74
2023/06/02 04:37:12;;;;;;;14.40;2.60;;;11.80;99.90;;;;;;5045992;28;20438;-74
2023/06/02 04:39:38;;;;;;;11.40;2.78;;;11.90;99.90;;;;;;5045958;28;20090;-75
2023/06/02 04:42:03;;;;;;;10.20;2.50;;;11.90;99.90;;;;;;5044665;28;20030;-74
2023/06/02 04:44:30;;;;;;;9.65;2.55;;;11.90;99.90;;;;;;5042991;28;20029;-74
2023/06/02 04:46:55;;;;;;;11.77;2.97;;;11.90;99.90;;;;;;5033338;28;20045;-75
2023/06/02 04:49:21;;;;;;;16.08;3.13;;;11.90;99.90;;;;;;5046234;28;20067;-74
2023/06/02 04:51:46;;;;;;;13.23;2.72;;;11.90;99.90;;;;;;5043011;28;20029;-75
2023/06/02 04:54:15;;;;;;;15.73;2.63;;;12.00;99.90;;;;;;5043345;28;20037;-75
2023/06/02 04:56:40;;;;;;;11.07;2.50;;;12.00;99.90;;;;;;5053281;28;20024;-75
2023/06/02 04:59:06;;;;;;;12.57;2.40;;;12.10;99.90;;;;;;5045608;28;20034;-75
2023/06/02 05:01:33;;;;;;;14.10;3.05;;;12.10;99.90;;;;;;5045426;28;20526;-75
2023/06/02 05:03:58;;;;;;;19.30;3.70;;;12.10;99.90;;;;;;5044677;28;20040;-74
2023/06/02 05:06:24;;;;;;;13.98;2.80;;;12.10;99.90;;;;;;5042348;28;20458;-75
2023/06/02 05:08:50;;;;;;;17.40;3.22;;;12.20;99.90;;;;;;5042106;28;20033;-74
2023/06/02 05:11:16;;;;;;;13.52;3.00;;;12.20;99.90;;;;;;5049452;28;20420;-74
2023/06/02 05:13:44;;;;;;;14.68;2.80;;;12.30;99.90;;;;;;5045358;28;20021;-74
2023/06/02 05:16:09;;;;;;;15.75;2.75;;;12.30;99.90;;;;;;5042983;28;20488;-74
2023/06/02 05:18:35;;;;;;;11.23;2.58;;;12.40;99.90;;;;;;5042147;28;20088;-74
2023/06/02 05:21:00;;;;;;;13.70;2.70;;;12.50;99.90;;;;;;5042328;28;20105;-75
2023/06/02 05:23:26;;;;;;;16.30;3.08;;;12.60;99.90;;;;;;5041563;28;20032;-75
2023/06/02 05:25:52;;;;;;;15.10;4.28;;;12.60;99.90;;;;;;5041729;28;20028;-75
2023/06/02 05:28:18;;;;;;;17.92;2.92;;;12.70;99.90;;;;;;5041447;28;20556;-76
2023/06/02 05:30:43;;;;;;;15.63;2.85;;;12.70;99.90;;;;;;5041398;28;20045;-75
2023/06/02 05:33:09;;;;;;;14.50;3.05;;;12.80;99.90;;;;;;5043057;28;20034;-75
2023/06/02 05:35:34;;;;;;;11.77;2.58;;;12.80;99.90;;;;;;5045142;28;20043;-75
2023/06/02 05:38:00;;;;;;;15.65;2.65;;;12.80;99.90;;;;;;5043622;28;20104;-74
2023/06/02 05:40:25;;;;;;;15.48;2.60;;;12.90;99.90;;;;;;5053958;28;20488;-74
2023/06/02 05:42:51;;;;;;;8.75;2.38;;;12.90;99.90;;;;;;5045746;28;20346;-76
2023/06/02 05:45:16;;;;;;;13.77;2.92;;;13.00;99.90;;;;;;5050568;28;20040;-75
2023/06/02 05:47:42;;;;;;;12.35;2.70;;;13.00;99.90;;;;;;5043313;28;20033;-75
2023/06/02 05:50:08;;;;;;;11.32;2.90;;;13.00;99.90;;;;;;5045102;28;20041;-75
2023/06/02 05:52:34;;;;;;;16.55;2.53;;;13.00;99.90;;;;;;5046642;28;20473;-76
2023/06/02 05:54:59;;;;;;;17.35;2.70;;;13.10;99.90;;;;;;5026611;28;20025;-75
2023/06/02 05:57:25;;;;;;;14.45;2.55;;;13.20;99.90;;;;;;5048578;28;20180;-75
2023/06/02 05:59:50;;;;;;;14.25;3.05;;;13.30;99.90;;;;;;5033152;28;20076;-75
2023/06/02 06:02:16;;;;;;;17.38;3.72;;;13.40;99.90;;;;;;5046216;28;20029;-75
2023/06/02 06:04:45;;;;;;;12.90;2.60;;;13.60;99.90;;;;;;5046028;28;20429;-74
2023/06/02 06:07:11;;;;;;;8.07;2.33;;;13.70;99.90;;;;;;5044376;28;20021;-76
2023/06/02 06:09:36;;;;;;;12.90;2.85;;;13.70;99.90;;;;;;5045545;28;20029;-75
2023/06/02 06:12:02;;;;;;;10.30;3.30;;;13.80;99.90;;;;;;5042967;28;20075;-75
2023/06/02 06:14:28;;;;;;;20.65;4.38;;;13.80;99.90;;;;;;5038627;28;20025;-76
2023/06/02 06:16:53;;;;;;;11.45;2.53;;;13.90;99.90;;;;;;5035821;28;20029;-76
2023/06/02 06:19:19;;;;;;;16.50;3.65;;;14.00;99.90;;;;;;5036312;28;20110;-75
2023/06/02 06:21:44;;;;;;;18.92;3.08;;;14.20;99.90;;;;;;5037772;28;20021;-75
2023/06/02 06:24:10;;;;;;;13.75;2.47;;;14.30;99.90;;;;;;5049352;28;20025;-76
2023/06/02 06:26:36;;;;;;;16.73;3.30;;;14.40;99.90;;;;;;5040489;28;20034;-75
2023/06/02 06:29:03;;;;;;;14.30;2.33;;;14.50;99.90;;;;;;5040369;28;20030;-75
2023/06/02 06:31:29;;;;;;;21.10;5.50;;;14.60;99.90;;;;;;5043730;28;20047;-75
2023/06/02 06:33:54;;;;;;;13.40;2.90;;;14.50;99.90;;;;;;5043558;28;20085;-75
2023/06/02 06:36:20;;;;;;;16.50;3.30;;;14.50;99.90;;;;;;5022405;28;20065;-76
2023/06/02 06:38:45;;;;;;;13.80;2.30;;;14.50;99.90;;;;;;5040229;28;20503;-76
2023/06/02 06:41:11;;;;;;;11.20;2.38;;;14.40;99.90;;;;;;5042179;28;20092;-76
2023/06/02 06:43:37;;;;;;;11.85;2.83;;;14.40;99.90;;;;;;5043073;28;20381;-75
2023/06/02 06:46:02;;;;;;;10.25;2.33;;;14.30;99.90;;;;;;5042526;28;20071;-75
2023/06/02 06:48:28;;;;;;;17.05;3.63;;;14.30;99.90;;;;;;5040320;28;20092;-75
2023/06/02 06:50:54;;;;;;;17.40;4.85;;;14.40;99.90;;;;;;5043347;28;20051;-75
2023/06/02 06:53:19;;;;;;;14.75;2.40;;;14.50;99.90;;;;;;5042123;28;20052;-75
2023/06/02 06:55:46;;;;;;;18.00;4.57;;;14.70;99.90;;;;;;5050985;28;20044;-76
2023/06/02 06:58:11;;;;;;;13.68;2.90;;;14.90;99.90;;;;;;5044435;28;20423;-75
2023/06/02 07:00:38;;;;;;;19.17;3.85;;;15.20;99.80;;;;;;5044392;28;20128;-76
2023/06/02 07:03:03;;;;;;;14.55;3.00;;;15.50;99.40;;;;;;5051160;28;20025;-75
2023/06/02 07:05:29;;;;;;;16.98;3.28;;;15.60;99.10;;;;;;5043304;28;20461;-75
2023/06/02 07:07:55;;;;;;;18.58;4.32;;;15.70;99.00;;;;;;5043243;28;20028;-75
2023/06/02 07:10:21;;;;;;;13.52;3.53;;;15.80;99.00;;;;;;5046472;28;20418;-76
2023/06/02 07:12:46;;;;;;;14.38;2.78;;;16.10;98.70;;;;;;5039459;28;20029;-75
2023/06/02 07:15:12;;;;;;;13.73;2.33;;;16.30;98.30;;;;;;5037117;28;20029;-76
2023/06/02 07:17:40;;;;;;;9.07;2.63;;;16.40;98.00;;;;;;5047082;28;20104;-76
2023/06/02 07:20:06;;;;;;;17.88;3.78;;;16.40;98.20;;;;;;5023695;28;20263;-76
2023/06/02 07:22:31;;;;;;;17.02;3.30;;;16.40;98.10;;;;;;5039390;28;20106;-76
2023/06/02 07:24:57;;;;;;;23.85;4.45;;;16.50;98.00;;;;;;5031037;28;20454;-76
2023/06/02 07:27:23;;;;;;;17.40;3.80;;;16.60;97.80;;;;;;5040426;28;20022;-76
2023/06/02 07:29:48;;;;;;;19.58;5.63;;;16.60;98.00;;;;;;5038827;28;20482;-76
2023/06/02 07:32:14;;;;;;;19.92;4.90;;;16.60;97.80;;;;;;5041306;28;20351;-75
2023/06/02 07:34:40;;;;;;;14.23;3.20;;;16.50;97.90;;;;;;5045084;28;20090;-76
2023/06/02 07:37:05;;;;;;;15.20;3.30;;;16.50;98.10;;;;;;5017437;28;20025;-76
2023/06/02 07:39:31;;;;;;;14.65;2.83;;;16.60;98.10;;;;;;5051339;28;20041;-76
2023/06/02 07:41:56;;;;;;;13.38;2.70;;;16.60;98.00;;;;;;5043509;28;20057;-76
2023/06/02 07:44:22;;;;;;;18.77;3.92;;;16.50;98.20;;;;;;5042306;28;20055;-76
2023/06/02 07:46:48;;;;;;;17.75;3.45;;;16.40;98.50;;;;;;5048462;28;20063;-76
2023/06/02 07:49:13;;;;;;;14.23;2.53;;;16.30;98.60;;;;;;5034656;28;20057;-75
2023/06/02 07:51:39;;;;;;;17.05;3.35;;;16.20;98.80;;;;;;5040979;28;20026;-76
2023/06/02 07:54:05;;;;;;;15.48;2.55;;;16.20;99.00;;;;;;5036453;28;20523;-76
2023/06/02 07:56:31;;;;;;;11.00;3.05;;;16.10;99.30;;;;;;5043515;28;20100;-76
2023/06/02 07:58:57;;;;;;;14.80;2.80;;;15.90;99.70;;;;;;5033074;28;20045;-76
2023/06/02 08:01:22;;;;;;;14.23;4.55;;;15.80;99.90;;;;;;5047861;28;20462;-76
2023/06/02 08:03:48;;;;;;;11.48;2.58;;;15.80;99.90;;;;;;5040991;28;20496;-76
2023/06/02 08:06:14;;;;;;;13.30;2.55;;;15.70;99.90;;;;;;5044443;28;20021;-75
2023/06/02 08:08:40;;;;;;;15.27;3.67;;;15.70;99.90;;;;;;5038097;28;20030;-75
2023/06/02 08:11:05;;;;;;;15.27;3.80;;;15.60;99.90;;;;;;5036602;28;20513;-76
2023/06/02 08:13:31;;;;;;;13.00;3.00;;;15.70;99.90;;;;;;5036619;28;20018;-75
2023/06/02 08:15:57;;;;;;;16.52;3.30;;;15.70;99.90;;;;;;5034047;28;20492;-75
2023/06/02 08:18:23;;;;;;;15.63;3.72;;;15.80;99.90;;;;;;5028150;28;20388;-75
2023/06/02 08:20:48;;;;;;;16.83;3.90;;;15.80;99.90;;;;;;5039158;28;20097;-76
2023/06/02 08:23:14;;;;;;;14.68;3.85;;;15.90;99.90;;;;;;5050795;28;20051;-76
2023/06/02 08:25:40;;;;;;;14.20;2.90;;;15.90;99.90;;;;;;5039786;28;20378;-75
2023/06/02 08:28:06;;;;;;;14.20;3.05;;;16.00;99.90;;;;;;5044188;28;20053;-75
2023/06/02 08:30:36;;;;;;;12.32;2.63;;;16.00;99.90;;;;;;5004299;28;1116271;-75
2023/06/02 08:33:03;;;;;;;15.30;2.70;;;16.10;99.90;;;;;;5041802;28;20469;-76
2023/06/02 08:35:30;;;;;;;15.43;2.83;;;16.00;99.90;;;;;;5052982;28;20458;-75
2023/06/02 08:37:55;;;;;;;10.98;2.70;;;16.00;99.90;;;;;;5047171;28;20071;-76
2023/06/02 08:40:27;;;;;;;15.07;3.15;;;16.00;99.90;;;;;;5045746;28;20041;-76
2023/06/02 08:42:53;;;;;;;11.60;2.80;;;15.90;99.90;;;;;;5039633;28;20104;-76
2023/06/02 08:45:22;;;;;;;14.20;3.00;;;15.90;99.90;;;;;;5052303;28;20116;-76
2023/06/02 08:47:53;;;;;;;18.98;3.00;;;16.00;99.90;;;;;;5048001;28;20017;-78
2023/06/02 08:50:22;;;;;;;16.50;3.00;;;16.10;99.90;;;;;;5045115;28;20025;-78
2023/06/02 08:52:50;;;;;;;13.18;2.70;;;16.20;99.90;;;;;;5049081;28;20034;-78
2023/06/02 08:55:16;;;;;;;12.23;2.60;;;16.30;99.90;;;;;;5045513;28;20036;-75
2023/06/02 08:57:42;;;;;;;14.88;2.97;;;16.30;99.90;;;;;;5055521;28;20021;-78
2023/06/02 09:00:08;;;;;;;9.55;2.53;;;16.30;99.90;;;;;;5027509;28;20405;-79
2023/06/02 09:02:34;;;;;;;10.38;2.60;;;16.20;99.90;;;;;;5042090;28;20022;-76
2023/06/02 09:05:02;;;;;;;18.83;3.20;;;16.20;99.90;;;;;;5038799;28;20030;-75
2023/06/02 09:07:30;;;;;;;13.43;2.65;;;16.20;99.90;;;;;;5050372;28;20018;-78
2023/06/02 09:09:55;;;;;;;9.40;2.13;;;16.30;99.90;;;;;;5047866;28;20035;-76
2023/06/02 09:12:21;;;;;;;14.35;2.67;;;16.30;99.90;;;;;;5042843;28;20112;-75
2023/06/02 09:15:05;;;;;;;10.45;2.75;;;16.30;99.90;;;;;;5037841;28;20088;-76
2023/06/02 09:17:31;;;;;;;9.63;3.08;;;16.30;99.90;;;;;;5038502;28;20031;-76
2023/06/02 09:20:07;;;;;;;12.23;3.00;;;16.20;99.90;;;;;;5045961;28;20037;-75
2023/06/02 09:22:33;;;;;;;12.85;2.63;;;16.10;99.90;;;;;;5033690;28;20370;-76
2023/06/02 09:24:58;;;;;;;8.27;2.33;;;16.10;99.90;;;;;;5050380;28;20033;-76
2023/06/02 09:27:25;;;;;;;12.43;2.78;;;16.00;99.90;;;;;;5037568;28;20108;-76
2023/06/02 09:30:00;;;;;;;12.63;3.63;;;16.00;99.90;;;;;;5047102;28;20433;-76
2023/06/02 09:32:26;;;;;;;12.00;2.95;;;16.00;99.90;;;;;;5049864;28;20033;-76
2023/06/02 09:34:52;;;;;;;19.95;3.30;;;16.10;99.90;;;;;;5038737;28;20029;-76
2023/06/02 09:37:19;;;;;;;14.85;3.22;;;16.10;99.90;;;;;;5050776;28;20035;-76
2023/06/02 09:39:53;;;;;;;10.35;2.38;;;16.30;99.90;;;;;;5040174;28;20029;-76
2023/06/02 09:42:19;;;;;;;15.75;3.38;;;16.50;99.90;;;;;;5052905;28;20024;-76
2023/06/02 09:45:07;;;;;;;18.27;3.50;;;16.70;99.90;;;;;;5053215;28;20025;-76
2023/06/02 09:47:41;;;;;;;14.70;2.92;;;17.00;99.90;;;;;;5047021;28;20026;-76
2023/06/02 09:50:07;;;;;;;19.67;3.13;;;17.30;99.90;;;;;;5044402;28;20040;-76
2023/06/02 09:52:33;;;;;;;18.58;3.00;;;17.60;99.70;;;;;;5033824;28;20104;-76
2023/06/02 09:54:59;;;;;;;13.68;3.08;;;17.90;99.50;;;;;;5035575;28;20106;-75
2023/06/02 09:57:25;;;;;;;13.88;3.33;;;18.20;99.00;;;;;;5043872;28;20037;-76
2023/06/02 09:59:51;;;;;;;15.25;2.83;;;18.40;98.70;;;;;;5045115;28;20045;-76
2023/06/02 10:02:16;;;;;;;9.55;2.75;;;18.50;98.70;;;;;;5043247;28;20171;-78
2023/06/02 10:04:42;;;;;;;16.60;2.92;;;18.60;98.30;;;;;;5047513;28;20029;-76
2023/06/02 10:07:35;;;;;;;17.33;3.70;;;18.50;98.50;;;;;;5037082;28;20025;-76
2023/06/02 10:10:22;;;;;;;15.05;3.58;;;18.50;98.70;;;;;;5044738;28;20033;-78
2023/06/02 10:13:21;;;;;;;12.30;3.08;;;18.50;98.70;;;;;;5048375;28;20032;-75
2023/06/02 10:15:53;;;;;;;16.35;3.83;;;18.50;98.50;;;;;;5039999;28;20025;-76
2023/06/02 10:18:34;;;;;;;14.52;3.05;;;18.30;98.90;;;;;;5044445;28;20029;-78
2023/06/02 10:21:14;;;;;;;16.83;4.13;;;18.10;99.30;;;;;;5046084;28;20096;-75
2023/06/02 10:24:07;;;;;;;14.30;2.80;;;18.20;99.20;;;;;;5049482;28;20029;-75
2023/06/02 10:26:59;;;;;;;;;;;18.20;99.20;;;;;;5046172;28;20029;-75
2023/06/02 10:29:25;;;;;;;20.70;3.47;;;18.30;99.20;;;;;;5037184;28;19974;-75
2023/06/02 10:31:51;;;;;;;22.40;4.10;;;18.20;99.30;;;;;;5062200;28;20036;-76
2023/06/02 10:34:55;;;;;;;15.57;3.70;;;18.10;99.50;;;;;;5066950;28;20047;-77
2023/06/02 10:37:23;;;;;;;18.50;3.95;;;18.10;99.70;;;;;;5048429;28;20029;-76
2023/06/02 10:39:52;;;;;;;18.02;3.35;;;17.90;99.90;;;;;;5054706;28;20059;-74
2023/06/02 10:42:19;;;;;;;16.25;3.30;;;17.90;99.90;;;;;;5058364;28;20029;-78
2023/06/02 10:44:47;;;;;;;18.02;3.28;;;18.00;99.90;;;;;;5067600;28;20024;-77
2023/06/02 10:47:18;;;;;;;15.60;3.28;;;18.10;99.90;;;;;;5068398;28;20353;-75
2023/06/02 10:49:55;;;;;;;19.50;3.67;;;18.10;99.90;;;;;;5058238;28;20040;-76
2023/06/02 10:52:22;;;;;;;19.67;4.43;;;18.20;99.90;;;;;;5068892;28;20434;-77
2023/06/02 10:55:08;;;;;;;14.98;3.40;;;18.30;99.90;;;;;;5062428;28;20488;-75
2023/06/02 10:58:12;;;;;;;14.45;3.25;;;18.30;99.90;;;;;;5052902;28;20057;-75
2023/06/02 11:00:45;;;;;;;14.65;3.60;;;18.10;99.90;;;;;;5063859;28;20032;-76
2023/06/02 11:03:17;;;;;;;16.58;3.70;;;18.00;99.90;;;;;;5068827;28;20013;-76
2023/06/02 11:05:44;;;;;;;17.42;3.55;;;18.00;99.90;;;;;;5064916;28;20031;-76
2023/06/02 11:08:14;;;;;;;15.82;4.13;;;18.10;99.90;;;;;;5059121;28;20032;-76
2023/06/02 11:10:41;;;;;;;17.83;3.83;;;18.30;99.90;;;;;;5059572;28;20047;-76
2023/06/02 11:13:07;;;;;;;17.25;4.00;;;18.50;99.80;;;;;;5067940;28;20031;-76
2023/06/02 11:15:33;;;;;;;16.27;3.70;;;18.60;99.70;;;;;;5060160;28;20092;-76
2023/06/02 11:18:00;;;;;;;17.70;3.75;;;18.60;99.80;;;;;;5060341;28;20028;-76
2023/06/02 11:20:34;;;;;;;12.52;3.17;;;18.50;99.90;;;;;;5063318;28;20028;-76
2023/06/02 11:23:04;;;;;;;12.95;3.83;;;18.50;99.90;;;;;;5063979;28;20507;-76
2023/06/02 11:25:30;;;;;;;15.65;3.53;;;18.70;99.80;;;;;;5059478;28;20016;-76
2023/06/02 11:27:56;;;;;;;16.67;3.53;;;18.90;99.30;;;;;;5064783;28;20108;-76
2023/06/02 11:30:21;;;;;;;9.45;3.15;;;19.00;98.90;;;;;;5052978;28;20131;-75
2023/06/02 11:32:51;;;;;;;12.02;2.95;;;19.00;98.90;;;;;;5034463;28;20423;-75
2023/06/02 11:35:25;;;;;;;11.88;3.30;;;19.00;99.10;;;;;;5048797;28;20036;-77
2023/06/02 11:38:20;;;;;;;15.98;3.78;;;19.00;99.10;;;;;;5047977;28;20025;-77
2023/06/02 11:40:46;;;;;;;15.20;4.10;;;19.00;99.20;;;;;;5023558;28;20132;-75
2023/06/02 11:43:20;;;;;;;17.13;3.92;;;19.00;99.20;;;;;;5053519;28;20440;-76
2023/06/02 11:45:46;;;;;;;13.30;3.53;;;19.00;99.10;;;;;;5054386;28;20105;-76
2023/06/02 11:48:12;;;;;;;15.85;3.35;;;19.00;99.40;;;;;;5043590;28;20109;-75
2023/06/02 11:50:38;;;;;;;17.10;3.33;;;19.00;99.20;;;;;;5050502;28;20108;-76
2023/06/02 11:53:12;;;;;;;14.82;3.67;;;19.20;99.30;;;;;;5037390;28;20071;-74
2023/06/02 11:55:38;;;;;;;12.60;3.55;;;19.40;98.90;;;;;;5051028;28;20017;-74
2023/06/02 11:58:23;;;;;;;15.48;3.55;;;19.50;98.70;;;;;;5039681;28;20474;-75
2023/06/02 12:00:50;;;;;;;12.77;3.90;;;19.40;98.60;;;;;;5052124;28;20040;-75
2023/06/02 12:03:17;;;;;;;19.40;3.90;;;19.50;98.50;;;;;;5053393;28;20060;-74
2023/06/02 12:05:45;;;;;;;15.82;3.88;;;19.50;98.50;;;;;;5041534;28;20021;-75
2023/06/02 12:08:20;;;;;;;22.20;5.07;;;19.50;98.60;;;;;;5055493;28;20050;-75
2023/06/02 12:10:49;;;;;;;22.58;5.57;;;19.50;98.70;;;;;;5045228;28;20097;-75
2023/06/02 12:13:24;;;;;;;15.30;4.25;;;19.50;98.80;;;;;;5046170;28;20021;-74
2023/06/02 12:15:50;;;;;;;15.18;4.22;;;19.40;98.90;;;;;;5043823;28;20025;-75
2023/06/02 12:18:27;;;;;;;19.20;4.35;;;19.50;98.80;;;;;;5045899;28;20334;-74
2023/06/02 12:20:53;;;;;;;17.15;3.92;;;19.50;98.80;;;;;;5052349;28;20044;-74
2023/06/02 12:23:19;;;;;;;21.10;4.85;;;19.50;98.80;;;;;;5040799;28;20808;-75
2023/06/02 12:25:59;;;;;;;10.75;3.70;;;19.80;98.70;;;;;;5069010;28;20044;-75
2023/06/02 12:28:25;;;;;;;14.73;4.03;;;20.40;98.00;;;;;;5055096;28;20029;-74
2023/06/02 12:30:51;;;;;;;16.52;3.83;;;20.90;97.20;;;;;;5049650;28;20520;-76
2023/06/02 12:33:16;;;;;;;21.65;4.40;;;21.30;96.70;;;;;;5052754;28;20025;-76
2023/06/02 12:35:42;;;;;;;14.60;4.00;;;21.80;96.00;;;;;;5038452;28;20084;-75
2023/06/02 12:38:09;;;;;;;19.67;3.95;;;22.20;95.70;;;;;;5040702;28;20033;-76
2023/06/02 12:40:37;;;;;;;14.23;4.18;;;22.80;95.00;;;;;;5049188;28;20464;-75